International Virtual Aviation Organisation

Russian Federation and Kazakhstan MCD

 
UNKL 041030Z 26003MPS CAVOK M12/M16 Q1027 R29/CLRD65 NOSIG RMK QFE744
QNH:(hPa/inHg/mmHg)1027 / 30.33 / 770
QFE:(hPa/inHg/mmHg)992 / 29.30 / 744
Temperature-12
Dew Point-16
Visibility> 10000
WeatherCAVOK
Cloud Cover
Transition Height1100 m./4600 ft.
Transition LevelFL60
SQUAWK